Forestville, WI (54213)

5:31 AM CST on January 22, 2017 (GMT -0600)
East Carnot, Wi | | Change Station

Elev 682 ft 44.71 °N, 87.39 °W | Updated 27 seconds ago

Fog
Fog
37.8 °F
Feels Like 38 °F
N
0.0
Wind Variable Wind from SSW

Today
High -- | Low -- °F
--% Chance of Precip.
Yesterday
High -- | Low -- °F
Precip. -- in
Pressure 29.65 in
Visibility 0.2 miles
Clouds Overcast 300 ft
Windchill 38 °F
Dew Point 37 °F
Humidity 98%
Rainfall 0.00 in
Snow Depth Not available.
7:18 AM 4:45 PM
Waning Crescent, 27% visible
METAR KSUE 221056Z AUTO 00000KT 1/4SM FG OVC003 03/03 A2957 RMK AO2 SLP038 T00280028 RVRNO
Pressure 29.65 in
Visibility 0.2 miles
Clouds Overcast 300 ft
Windchill 38 °F
Dew Point 37 °F
Humidity 98%
Rainfall 0.00 in
Snow Depth Not available.
7:18 AM 4:45 PM
Waning Crescent, 27% visible
METAR KSUE 221056Z AUTO 00000KT 1/4SM FG OVC003 03/03 A2957 RMK AO2 SLP038 T00280028 RVRNO

Get Your Daily Forecast Email!

Thanks for signing up!

Be on the lookout for a verification email in your inbox.

You'll start receiving the daily forecast at 8 AM.

×

10-Day Weather Forecast

Almanac

Astronomy

Jan. 22, 2017 Rise Set
Actual Time
Civil Twilight
Nautical Twilight
Astronomical Twilight
Moon
Length of Visible Light
Length of Day
Tomorrow will be .
, % of the Moon is Illuminated

Today's Extremes

State Highs State Lows

Community

WunderPhotos

Upload Photos

1,962,540 photos uploaded!

WunderBlog® & News

Nearby

Air Quality

  Air Quality AQ Index Pollutant
Not available.

Snow Depth

Station Depth Elevation

Earthquake Activity

City Distance Mag. Time & Date
Minimum magnitude displayed is 2.5.

Coastal Water Temperatures

Place Temperature

Stations

Nearby Weather Stations

Station Location Temp. Windchill Dew Point Humidity Wind Precip. Elev Updated Type
                   

Watches & Warnings

Dense Fog Advisory
Issued: 4:43 AM CST Jan. 22, 2017 – National Weather Service

... Dense fog advisory remains in effect until noon CST today...

* visibilities will frequently be a quarter mile or less. Some
locations may see visibility drop to only a few hundred feet.

* Poor visibilities will result in hazardous driving conditions.

Precautionary/preparedness actions...

A dense fog advisory means visibilities will frequently be
reduced to less than one quarter mile. If driving... slow down...
use your low beam headlights... and keep a safe distance from
other vehicles.





Marine Fog Advisory
Issued: 3:32 AM CST Jan. 22, 2017 – National Weather Service

... Dense fog advisory remains in effect until noon CST today...

* visibility: reduced to under one mile... and as low as one-
quarter of a mile at times.

Precautionary/preparedness actions...

A dense fog advisory means visibilities will frequently be
reduced to less than one mile. Inexperienced mariners...
especially those operating smaller vessels should avoid
navigating in these conditions.